sensor_id;sensor_type;location;lat;lon;timestamp;temperature;humidity
17994;DHT22;9122;48.406;9.984;2022-08-01T00:01:38;23.90;57.70
17994;DHT22;9122;48.406;9.984;2022-08-01T00:04:22;23.90;57.70
17994;DHT22;9122;48.406;9.984;2022-08-01T00:07:07;23.90;57.70
17994;DHT22;9122;48.406;9.984;2022-08-01T00:09:52;23.80;57.70
17994;DHT22;9122;48.406;9.984;2022-08-01T00:12:37;23.80;57.80
17994;DHT22;9122;48.406;9.984;2022-08-01T00:15:21;23.80;57.80
17994;DHT22;9122;48.406;9.984;2022-08-01T00:18:05;23.80;57.80
17994;DHT22;9122;48.406;9.984;2022-08-01T00:20:50;23.80;57.80
17994;DHT22;9122;48.406;9.984;2022-08-01T00:23:35;23.70;57.80
17994;DHT22;9122;48.406;9.984;2022-08-01T00:26:20;23.70;57.50
17994;DHT22;9122;48.406;9.984;2022-08-01T00:29:04;23.70;57.40
17994;DHT22;9122;48.406;9.984;2022-08-01T00:31:49;23.70;57.30
17994;DHT22;9122;48.406;9.984;2022-08-01T00:34:34;23.70;57.20
17994;DHT22;9122;48.406;9.984;2022-08-01T00:37:18;23.70;57.30
17994;DHT22;9122;48.406;9.984;2022-08-01T00:40:03;23.70;57.30
17994;DHT22;9122;48.406;9.984;2022-08-01T00:42:48;23.70;57.10
17994;DHT22;9122;48.406;9.984;2022-08-01T00:45:33;23.60;56.80
17994;DHT22;9122;48.406;9.984;2022-08-01T00:48:17;23.60;56.80
17994;DHT22;9122;48.406;9.984;2022-08-01T00:51:03;23.60;56.70
17994;DHT22;9122;48.406;9.984;2022-08-01T00:53:50;23.60;56.60
17994;DHT22;9122;48.406;9.984;2022-08-01T00:56:34;23.60;56.60
17994;DHT22;9122;48.406;9.984;2022-08-01T00:59:21;23.60;56.60
17994;DHT22;9122;48.406;9.984;2022-08-01T01:02:06;23.60;56.50
17994;DHT22;9122;48.406;9.984;2022-08-01T01:04:50;23.60;56.60
17994;DHT22;9122;48.406;9.984;2022-08-01T01:07:49;23.60;56.50
17994;DHT22;9122;48.406;9.984;2022-08-01T01:10:46;23.60;56.50
17994;DHT22;9122;48.406;9.984;2022-08-01T01:13:45;23.50;56.50
17994;DHT22;9122;48.406;9.984;2022-08-01T01:16:30;23.50;56.50
17994;DHT22;9122;48.406;9.984;2022-08-01T01:19:23;23.50;56.50
17994;DHT22;9122;48.406;9.984;2022-08-01T01:25:40;23.50;57.20
17994;DHT22;9122;48.406;9.984;2022-08-01T01:32:02;23.40;56.70
17994;DHT22;9122;48.406;9.984;2022-08-01T01:34:50;23.40;56.80
17994;DHT22;9122;48.406;9.984;2022-08-01T01:37:38;23.40;56.90
17994;DHT22;9122;48.406;9.984;2022-08-01T01:40:24;23.40;56.90
17994;DHT22;9122;48.406;9.984;2022-08-01T01:43:11;23.40;57.10
17994;DHT22;9122;48.406;9.984;2022-08-01T01:45:56;23.40;57.20
17994;DHT22;9122;48.406;9.984;2022-08-01T01:48:43;23.40;57.20
17994;DHT22;9122;48.406;9.984;2022-08-01T01:51:29;23.40;57.40
17994;DHT22;9122;48.406;9.984;2022-08-01T01:54:14;23.30;57.40
17994;DHT22;9122;48.406;9.984;2022-08-01T01:57:00;23.30;57.40
17994;DHT22;9122;48.406;9.984;2022-08-01T01:59:46;23.30;57.60
17994;DHT22;9122;48.406;9.984;2022-08-01T02:02:36;23.30;57.80
17994;DHT22;9122;48.406;9.984;2022-08-01T02:05:21;23.20;58.00
17994;DHT22;9122;48.406;9.984;2022-08-01T02:08:06;23.20;58.20
17994;DHT22;9122;48.406;9.984;2022-08-01T02:10:53;23.20;58.50
17994;DHT22;9122;48.406;9.984;2022-08-01T02:14:01;23.20;58.80
17994;DHT22;9122;48.406;9.984;2022-08-01T02:16:50;23.10;59.00
17994;DHT22;9122;48.406;9.984;2022-08-01T02:19:35;23.10;59.20
17994;DHT22;9122;48.406;9.984;2022-08-01T02:22:29;23.00;59.30
17994;DHT22;9122;48.406;9.984;2022-08-01T02:25:30;23.00;59.30
17994;DHT22;9122;48.406;9.984;2022-08-01T02:28:22;22.90;59.40
17994;DHT22;9122;48.406;9.984;2022-08-01T02:31:13;22.90;59.60
17994;DHT22;9122;48.406;9.984;2022-08-01T02:34:05;22.90;60.00
17994;DHT22;9122;48.406;9.984;2022-08-01T02:36:51;22.80;60.40
17994;DHT22;9122;48.406;9.984;2022-08-01T02:39:37;22.80;60.60
17994;DHT22;9122;48.406;9.984;2022-08-01T02:42:23;22.70;60.80
17994;DHT22;9122;48.406;9.984;2022-08-01T02:45:12;22.70;61.10
17994;DHT22;9122;48.406;9.984;2022-08-01T02:48:06;22.70;61.60
17994;DHT22;9122;48.406;9.984;2022-08-01T02:50:53;22.70;61.80
17994;DHT22;9122;48.406;9.984;2022-08-01T02:53:39;22.70;61.90
17994;DHT22;9122;48.406;9.984;2022-08-01T02:56:26;22.60;62.20
17994;DHT22;9122;48.406;9.984;2022-08-01T02:59:21;22.60;62.50
17994;DHT22;9122;48.406;9.984;2022-08-01T03:02:16;22.60;62.80
17994;DHT22;9122;48.406;9.984;2022-08-01T03:05:02;22.60;62.90
17994;DHT22;9122;48.406;9.984;2022-08-01T03:07:48;22.50;63.20
17994;DHT22;9122;48.406;9.984;2022-08-01T03:10:33;22.50;63.40
17994;DHT22;9122;48.406;9.984;2022-08-01T03:13:20;22.50;63.60
17994;DHT22;9122;48.406;9.984;2022-08-01T03:16:05;22.40;63.90
17994;DHT22;9122;48.406;9.984;2022-08-01T03:18:53;22.40;63.90
17994;DHT22;9122;48.406;9.984;2022-08-01T03:21:39;22.40;64.10
17994;DHT22;9122;48.406;9.984;2022-08-01T03:24:25;22.40;64.50
17994;DHT22;9122;48.406;9.984;2022-08-01T03:27:11;22.30;64.90
17994;DHT22;9122;48.406;9.984;2022-08-01T03:29:56;22.30;65.30
17994;DHT22;9122;48.406;9.984;2022-08-01T03:32:42;22.30;65.40
17994;DHT22;9122;48.406;9.984;2022-08-01T03:35:30;22.20;65.50
17994;DHT22;9122;48.406;9.984;2022-08-01T03:38:18;22.20;65.60
17994;DHT22;9122;48.406;9.984;2022-08-01T03:41:15;22.20;65.90
17994;DHT22;9122;48.406;9.984;2022-08-01T03:44:06;22.20;66.00
17994;DHT22;9122;48.406;9.984;2022-08-01T03:47:04;22.10;66.00
17994;DHT22;9122;48.406;9.984;2022-08-01T03:49:50;22.10;66.30
17994;DHT22;9122;48.406;9.984;2022-08-01T03:52:38;22.10;66.40
17994;DHT22;9122;48.406;9.984;2022-08-01T03:55:24;22.00;66.60
17994;DHT22;9122;48.406;9.984;2022-08-01T03:58:10;22.00;66.90
17994;DHT22;9122;48.406;9.984;2022-08-01T04:00:56;22.00;67.00
17994;DHT22;9122;48.406;9.984;2022-08-01T04:03:41;21.90;67.10
17994;DHT22;9122;48.406;9.984;2022-08-01T04:06:25;21.90;67.30
17994;DHT22;9122;48.406;9.984;2022-08-01T04:09:11;21.90;67.50
17994;DHT22;9122;48.406;9.984;2022-08-01T04:11:56;21.90;67.60
17994;DHT22;9122;48.406;9.984;2022-08-01T04:14:40;21.90;67.80
17994;DHT22;9122;48.406;9.984;2022-08-01T04:17:25;21.90;68.10
17994;DHT22;9122;48.406;9.984;2022-08-01T04:20:10;21.80;68.40
17994;DHT22;9122;48.406;9.984;2022-08-01T04:22:55;21.80;68.70
17994;DHT22;9122;48.406;9.984;2022-08-01T04:25:40;21.80;69.10
17994;DHT22;9122;48.406;9.984;2022-08-01T04:28:27;21.70;69.00
17994;DHT22;9122;48.406;9.984;2022-08-01T04:31:14;21.70;69.20
17994;DHT22;9122;48.406;9.984;2022-08-01T04:34:02;21.70;69.40
17994;DHT22;9122;48.406;9.984;2022-08-01T04:36:48;21.70;69.70
17994;DHT22;9122;48.406;9.984;2022-08-01T04:39:34;21.70;69.90
17994;DHT22;9122;48.406;9.984;2022-08-01T04:42:21;21.60;70.20
17994;DHT22;9122;48.406;9.984;2022-08-01T04:45:07;21.60;70.50
17994;DHT22;9122;48.406;9.984;2022-08-01T04:47:52;21.60;70.60
17994;DHT22;9122;48.406;9.984;2022-08-01T04:50:37;21.60;70.80
17994;DHT22;9122;48.406;9.984;2022-08-01T04:53:22;21.60;70.80
17994;DHT22;9122;48.406;9.984;2022-08-01T04:56:06;21.60;71.00
17994;DHT22;9122;48.406;9.984;2022-08-01T04:58:51;21.60;71.10
17994;DHT22;9122;48.406;9.984;2022-08-01T05:01:55;21.60;71.20
17994;DHT22;9122;48.406;9.984;2022-08-01T05:04:40;21.60;71.40
17994;DHT22;9122;48.406;9.984;2022-08-01T05:07:25;21.60;71.50
17994;DHT22;9122;48.406;9.984;2022-08-01T05:10:09;21.60;71.70
17994;DHT22;9122;48.406;9.984;2022-08-01T05:12:54;21.50;71.90
17994;DHT22;9122;48.406;9.984;2022-08-01T05:15:38;21.60;72.20
17994;DHT22;9122;48.406;9.984;2022-08-01T05:18:23;21.60;72.20
17994;DHT22;9122;48.406;9.984;2022-08-01T05:21:08;21.60;72.40
17994;DHT22;9122;48.406;9.984;2022-08-01T05:23:52;21.60;72.50
17994;DHT22;9122;48.406;9.984;2022-08-01T05:26:36;21.60;72.70
17994;DHT22;9122;48.406;9.984;2022-08-01T05:29:21;21.60;72.80
17994;DHT22;9122;48.406;9.984;2022-08-01T05:32:06;21.60;72.90
17994;DHT22;9122;48.406;9.984;2022-08-01T05:34:50;21.60;73.00
17994;DHT22;9122;48.406;9.984;2022-08-01T05:37:35;21.60;73.10
17994;DHT22;9122;48.406;9.984;2022-08-01T05:40:19;21.70;73.50
17994;DHT22;9122;48.406;9.984;2022-08-01T05:43:04;21.70;73.60
17994;DHT22;9122;48.406;9.984;2022-08-01T05:45:48;21.70;73.70
17994;DHT22;9122;48.406;9.984;2022-08-01T05:48:33;21.80;73.30
17994;DHT22;9122;48.406;9.984;2022-08-01T05:51:17;21.80;72.90
17994;DHT22;9122;48.406;9.984;2022-08-01T05:54:02;21.90;72.70
17994;DHT22;9122;48.406;9.984;2022-08-01T05:56:47;22.00;72.70
17994;DHT22;9122;48.406;9.984;2022-08-01T05:59:32;22.10;72.70
17994;DHT22;9122;48.406;9.984;2022-08-01T06:02:16;22.10;72.30
17994;DHT22;9122;48.406;9.984;2022-08-01T06:05:01;22.20;72.00
17994;DHT22;9122;48.406;9.984;2022-08-01T06:07:45;22.30;71.70
17994;DHT22;9122;48.406;9.984;2022-08-01T06:10:30;22.40;71.60
17994;DHT22;9122;48.406;9.984;2022-08-01T06:13:15;22.40;71.90
17994;DHT22;9122;48.406;9.984;2022-08-01T06:15:59;22.50;71.90
17994;DHT22;9122;48.406;9.984;2022-08-01T06:18:44;22.60;71.60
17994;DHT22;9122;48.406;9.984;2022-08-01T06:21:29;22.70;71.40
17994;DHT22;9122;48.406;9.984;2022-08-01T06:24:13;22.80;71.20
17994;DHT22;9122;48.406;9.984;2022-08-01T06:26:58;22.90;70.90
17994;DHT22;9122;48.406;9.984;2022-08-01T06:29:43;23.00;70.50
17994;DHT22;9122;48.406;9.984;2022-08-01T06:32:27;23.10;70.10
17994;DHT22;9122;48.406;9.984;2022-08-01T06:35:14;23.20;69.90
17994;DHT22;9122;48.406;9.984;2022-08-01T06:37:58;23.20;69.70
17994;DHT22;9122;48.406;9.984;2022-08-01T06:40:43;23.30;69.50
17994;DHT22;9122;48.406;9.984;2022-08-01T06:43:30;23.40;69.20
17994;DHT22;9122;48.406;9.984;2022-08-01T06:46:15;23.40;68.90
17994;DHT22;9122;48.406;9.984;2022-08-01T06:49:00;23.60;68.70
17994;DHT22;9122;48.406;9.984;2022-08-01T06:51:45;23.70;68.70
17994;DHT22;9122;48.406;9.984;2022-08-01T06:54:30;23.70;68.30
17994;DHT22;9122;48.406;9.984;2022-08-01T06:57:14;23.80;68.30
17994;DHT22;9122;48.406;9.984;2022-08-01T07:00:04;23.90;68.10
17994;DHT22;9122;48.406;9.984;2022-08-01T07:02:54;24.00;67.80
17994;DHT22;9122;48.406;9.984;2022-08-01T07:05:39;24.10;67.50
17994;DHT22;9122;48.406;9.984;2022-08-01T07:08:24;24.20;67.30
17994;DHT22;9122;48.406;9.984;2022-08-01T07:11:09;24.30;67.00
17994;DHT22;9122;48.406;9.984;2022-08-01T07:13:53;24.30;66.70
17994;DHT22;9122;48.406;9.984;2022-08-01T07:16:38;24.40;66.30
17994;DHT22;9122;48.406;9.984;2022-08-01T07:19:23;24.50;66.90
17994;DHT22;9122;48.406;9.984;2022-08-01T07:22:08;24.50;65.90
17994;DHT22;9122;48.406;9.984;2022-08-01T07:24:52;24.60;65.90
17994;DHT22;9122;48.406;9.984;2022-08-01T07:27:37;24.70;66.10
17994;DHT22;9122;48.406;9.984;2022-08-01T07:30:22;24.70;65.70
17994;DHT22;9122;48.406;9.984;2022-08-01T07:33:06;24.90;65.30
17994;DHT22;9122;48.406;9.984;2022-08-01T07:35:51;24.90;64.90
17994;DHT22;9122;48.406;9.984;2022-08-01T07:38:35;25.00;64.60
17994;DHT22;9122;48.406;9.984;2022-08-01T07:41:20;25.10;64.20
17994;DHT22;9122;48.406;9.984;2022-08-01T07:44:05;25.20;64.20
17994;DHT22;9122;48.406;9.984;2022-08-01T07:46:49;25.30;64.20
17994;DHT22;9122;48.406;9.984;2022-08-01T07:49:35;25.40;63.60
17994;DHT22;9122;48.406;9.984;2022-08-01T07:52:19;25.50;63.20
17994;DHT22;9122;48.406;9.984;2022-08-01T07:55:05;25.60;62.90
17994;DHT22;9122;48.406;9.984;2022-08-01T07:57:50;25.60;62.50
17994;DHT22;9122;48.406;9.984;2022-08-01T08:00:34;25.70;61.80
17994;DHT22;9122;48.406;9.984;2022-08-01T08:03:19;25.80;61.30
17994;DHT22;9122;48.406;9.984;2022-08-01T08:06:04;25.80;61.10
17994;DHT22;9122;48.406;9.984;2022-08-01T08:08:49;25.90;60.90
17994;DHT22;9122;48.406;9.984;2022-08-01T08:11:33;26.00;61.10
17994;DHT22;9122;48.406;9.984;2022-08-01T08:14:18;26.00;60.80
17994;DHT22;9122;48.406;9.984;2022-08-01T08:17:03;26.10;60.70
17994;DHT22;9122;48.406;9.984;2022-08-01T08:19:48;26.20;60.80
17994;DHT22;9122;48.406;9.984;2022-08-01T08:22:32;26.30;60.70
17994;DHT22;9122;48.406;9.984;2022-08-01T08:25:17;26.40;60.50
17994;DHT22;9122;48.406;9.984;2022-08-01T08:28:03;26.40;60.10
17994;DHT22;9122;48.406;9.984;2022-08-01T08:30:47;26.60;59.60
17994;DHT22;9122;48.406;9.984;2022-08-01T08:33:32;26.60;59.10
17994;DHT22;9122;48.406;9.984;2022-08-01T08:36:17;26.70;58.80
17994;DHT22;9122;48.406;9.984;2022-08-01T08:39:02;26.80;58.90
17994;DHT22;9122;48.406;9.984;2022-08-01T08:41:47;26.90;58.40
17994;DHT22;9122;48.406;9.984;2022-08-01T08:44:32;26.90;58.20
17994;DHT22;9122;48.406;9.984;2022-08-01T08:47:17;27.00;58.10
17994;DHT22;9122;48.406;9.984;2022-08-01T08:50:03;27.10;58.20
17994;DHT22;9122;48.406;9.984;2022-08-01T08:52:48;27.10;58.00
17994;DHT22;9122;48.406;9.984;2022-08-01T08:55:33;27.20;57.90
17994;DHT22;9122;48.406;9.984;2022-08-01T08:58:19;27.30;57.70
17994;DHT22;9122;48.406;9.984;2022-08-01T09:01:07;27.40;57.50
17994;DHT22;9122;48.406;9.984;2022-08-01T09:03:53;27.50;57.00
17994;DHT22;9122;48.406;9.984;2022-08-01T09:06:38;27.50;56.80
17994;DHT22;9122;48.406;9.984;2022-08-01T09:09:23;27.60;56.70
17994;DHT22;9122;48.406;9.984;2022-08-01T09:12:08;27.50;56.50
17994;DHT22;9122;48.406;9.984;2022-08-01T09:14:53;27.60;56.60
17994;DHT22;9122;48.406;9.984;2022-08-01T09:17:41;27.70;56.50
17994;DHT22;9122;48.406;9.984;2022-08-01T09:20:25;27.70;56.30
17994;DHT22;9122;48.406;9.984;2022-08-01T09:23:31;27.80;56.30
17994;DHT22;9122;48.406;9.984;2022-08-01T09:26:37;27.90;55.40
17994;DHT22;9122;48.406;9.984;2022-08-01T09:29:27;28.00;54.90
17994;DHT22;9122;48.406;9.984;2022-08-01T09:32:12;28.10;54.30
17994;DHT22;9122;48.406;9.984;2022-08-01T09:34:56;28.10;54.30
17994;DHT22;9122;48.406;9.984;2022-08-01T09:37:41;28.10;54.20
17994;DHT22;9122;48.406;9.984;2022-08-01T09:40:53;28.20;54.10
17994;DHT22;9122;48.406;9.984;2022-08-01T09:43:38;28.20;53.80
17994;DHT22;9122;48.406;9.984;2022-08-01T09:46:22;28.30;53.50
17994;DHT22;9122;48.406;9.984;2022-08-01T09:49:07;28.40;53.00
17994;DHT22;9122;48.406;9.984;2022-08-01T09:51:52;28.50;52.60
17994;DHT22;9122;48.406;9.984;2022-08-01T09:54:36;28.60;52.20
17994;DHT22;9122;48.406;9.984;2022-08-01T09:57:21;28.70;52.10
17994;DHT22;9122;48.406;9.984;2022-08-01T10:00:17;28.80;52.10
17994;DHT22;9122;48.406;9.984;2022-08-01T10:03:22;28.90;51.60
17994;DHT22;9122;48.406;9.984;2022-08-01T10:06:21;29.00;51.10
17994;DHT22;9122;48.406;9.984;2022-08-01T10:09:05;29.10;50.30
17994;DHT22;9122;48.406;9.984;2022-08-01T10:11:50;29.20;50.10
17994;DHT22;9122;48.406;9.984;2022-08-01T10:14:37;29.30;50.30
17994;DHT22;9122;48.406;9.984;2022-08-01T10:17:25;29.30;50.40
17994;DHT22;9122;48.406;9.984;2022-08-01T10:20:09;29.50;50.50
17994;DHT22;9122;48.406;9.984;2022-08-01T10:22:55;29.60;50.20
17994;DHT22;9122;48.406;9.984;2022-08-01T10:25:43;29.60;49.90
17994;DHT22;9122;48.406;9.984;2022-08-01T10:28:30;29.70;49.50
17994;DHT22;9122;48.406;9.984;2022-08-01T10:31:16;29.80;49.50
17994;DHT22;9122;48.406;9.984;2022-08-01T10:34:02;29.80;49.40
17994;DHT22;9122;48.406;9.984;2022-08-01T10:36:47;29.90;49.40
17994;DHT22;9122;48.406;9.984;2022-08-01T10:39:33;30.00;49.20
17994;DHT22;9122;48.406;9.984;2022-08-01T10:42:18;30.10;49.50
17994;DHT22;9122;48.406;9.984;2022-08-01T10:45:03;30.20;49.10
17994;DHT22;9122;48.406;9.984;2022-08-01T10:50:43;30.30;47.90
17994;DHT22;9122;48.406;9.984;2022-08-01T10:53:28;30.30;47.50
17994;DHT22;9122;48.406;9.984;2022-08-01T10:56:13;30.30;47.30
17994;DHT22;9122;48.406;9.984;2022-08-01T10:59:02;30.30;47.80
17994;DHT22;9122;48.406;9.984;2022-08-01T11:02:02;30.30;47.90
17994;DHT22;9122;48.406;9.984;2022-08-01T11:04:55;30.40;47.60
17994;DHT22;9122;48.406;9.984;2022-08-01T11:07:47;30.50;47.30
17994;DHT22;9122;48.406;9.984;2022-08-01T11:10:41;30.50;47.10
17994;DHT22;9122;48.406;9.984;2022-08-01T11:14:09;30.50;47.20
17994;DHT22;9122;48.406;9.984;2022-08-01T11:16:56;30.60;46.60
17994;DHT22;9122;48.406;9.984;2022-08-01T11:20:17;30.60;46.20
17994;DHT22;9122;48.406;9.984;2022-08-01T11:28:35;30.80;45.70
17994;DHT22;9122;48.406;9.984;2022-08-01T11:34:04;30.90;45.20
17994;DHT22;9122;48.406;9.984;2022-08-01T11:37:25;30.90;44.40
17994;DHT22;9122;48.406;9.984;2022-08-01T11:40:27;30.90;43.70
17994;DHT22;9122;48.406;9.984;2022-08-01T11:45:56;30.80;44.80
17994;DHT22;9122;48.406;9.984;2022-08-01T11:48:41;30.70;45.20
17994;DHT22;9122;48.406;9.984;2022-08-01T11:51:26;30.70;45.20
17994;DHT22;9122;48.406;9.984;2022-08-01T11:54:11;30.70;45.00
17994;DHT22;9122;48.406;9.984;2022-08-01T11:56:58;30.60;44.50
17994;DHT22;9122;48.406;9.984;2022-08-01T11:59:48;30.60;45.40
17994;DHT22;9122;48.406;9.984;2022-08-01T12:02:34;30.50;44.80
17994;DHT22;9122;48.406;9.984;2022-08-01T12:05:18;30.40;45.60
17994;DHT22;9122;48.406;9.984;2022-08-01T12:08:04;30.40;45.50
17994;DHT22;9122;48.406;9.984;2022-08-01T12:10:49;30.30;45.90
17994;DHT22;9122;48.406;9.984;2022-08-01T12:13:42;30.20;46.20
17994;DHT22;9122;48.406;9.984;2022-08-01T12:16:27;30.10;46.90
17994;DHT22;9122;48.406;9.984;2022-08-01T12:19:18;30.00;47.40
17994;DHT22;9122;48.406;9.984;2022-08-01T12:22:13;29.90;48.40
17994;DHT22;9122;48.406;9.984;2022-08-01T12:25:13;29.70;50.20
17994;DHT22;9122;48.406;9.984;2022-08-01T12:28:05;29.60;51.00
17994;DHT22;9122;48.406;9.984;2022-08-01T12:30:50;29.50;51.90
17994;DHT22;9122;48.406;9.984;2022-08-01T12:33:35;29.30;52.40
17994;DHT22;9122;48.406;9.984;2022-08-01T12:36:29;29.30;52.60
17994;DHT22;9122;48.406;9.984;2022-08-01T12:39:14;29.20;52.50
17994;DHT22;9122;48.406;9.984;2022-08-01T12:41:58;29.10;52.10
17994;DHT22;9122;48.406;9.984;2022-08-01T12:44:45;29.10;51.80
17994;DHT22;9122;48.406;9.984;2022-08-01T12:47:31;29.00;51.80
17994;DHT22;9122;48.406;9.984;2022-08-01T12:50:20;29.00;51.30
17994;DHT22;9122;48.406;9.984;2022-08-01T12:53:05;29.00;51.90
17994;DHT22;9122;48.406;9.984;2022-08-01T12:55:52;28.90;52.70
17994;DHT22;9122;48.406;9.984;2022-08-01T12:58:37;28.80;53.10
17994;DHT22;9122;48.406;9.984;2022-08-01T13:01:26;28.80;53.30
17994;DHT22;9122;48.406;9.984;2022-08-01T13:04:10;28.70;52.60
17994;DHT22;9122;48.406;9.984;2022-08-01T13:06:55;28.70;53.00
17994;DHT22;9122;48.406;9.984;2022-08-01T13:09:49;28.70;53.20
17994;DHT22;9122;48.406;9.984;2022-08-01T13:12:34;28.70;53.90
17994;DHT22;9122;48.406;9.984;2022-08-01T13:15:31;28.70;54.40
17994;DHT22;9122;48.406;9.984;2022-08-01T13:18:30;28.70;54.80
17994;DHT22;9122;48.406;9.984;2022-08-01T13:21:21;28.60;55.00
17994;DHT22;9122;48.406;9.984;2022-08-01T13:24:11;28.60;55.00
17994;DHT22;9122;48.406;9.984;2022-08-01T13:26:58;28.60;55.20
17994;DHT22;9122;48.406;9.984;2022-08-01T13:29:44;28.50;55.00
17994;DHT22;9122;48.406;9.984;2022-08-01T13:32:29;28.50;54.70
17994;DHT22;9122;48.406;9.984;2022-08-01T13:35:14;28.50;55.00
17994;DHT22;9122;48.406;9.984;2022-08-01T13:37:58;28.40;54.70
17994;DHT22;9122;48.406;9.984;2022-08-01T13:40:43;28.40;54.60
17994;DHT22;9122;48.406;9.984;2022-08-01T13:43:27;28.40;55.00
17994;DHT22;9122;48.406;9.984;2022-08-01T13:46:11;28.40;55.50
17994;DHT22;9122;48.406;9.984;2022-08-01T13:48:56;28.40;55.70
17994;DHT22;9122;48.406;9.984;2022-08-01T13:51:40;28.40;56.10
17994;DHT22;9122;48.406;9.984;2022-08-01T13:54:25;28.40;56.10
17994;DHT22;9122;48.406;9.984;2022-08-01T13:57:10;28.30;55.60
17994;DHT22;9122;48.406;9.984;2022-08-01T13:59:54;28.30;55.50
17994;DHT22;9122;48.406;9.984;2022-08-01T14:02:39;28.30;55.30
17994;DHT22;9122;48.406;9.984;2022-08-01T14:05:24;28.30;56.20
17994;DHT22;9122;48.406;9.984;2022-08-01T14:08:09;28.30;56.60
17994;DHT22;9122;48.406;9.984;2022-08-01T14:10:53;28.40;55.70
17994;DHT22;9122;48.406;9.984;2022-08-01T14:13:40;28.30;55.00
17994;DHT22;9122;48.406;9.984;2022-08-01T14:16:25;28.30;53.90
17994;DHT22;9122;48.406;9.984;2022-08-01T14:19:10;28.30;54.00
17994;DHT22;9122;48.406;9.984;2022-08-01T14:21:54;28.30;54.40
17994;DHT22;9122;48.406;9.984;2022-08-01T14:24:40;28.30;53.80
17994;DHT22;9122;48.406;9.984;2022-08-01T14:27:25;28.30;53.20
17994;DHT22;9122;48.406;9.984;2022-08-01T14:30:10;28.30;52.50
17994;DHT22;9122;48.406;9.984;2022-08-01T14:32:55;28.30;52.00
17994;DHT22;9122;48.406;9.984;2022-08-01T14:35:40;28.20;53.00
17994;DHT22;9122;48.406;9.984;2022-08-01T14:38:25;28.20;53.30
17994;DHT22;9122;48.406;9.984;2022-08-01T14:41:10;28.20;53.20
17994;DHT22;9122;48.406;9.984;2022-08-01T14:43:54;28.20;53.60
17994;DHT22;9122;48.406;9.984;2022-08-01T14:46:39;28.20;53.90
17994;DHT22;9122;48.406;9.984;2022-08-01T14:49:25;28.20;54.20
17994;DHT22;9122;48.406;9.984;2022-08-01T14:52:10;28.10;53.70
17994;DHT22;9122;48.406;9.984;2022-08-01T14:54:55;28.10;53.70
17994;DHT22;9122;48.406;9.984;2022-08-01T14:57:40;28.10;54.20
17994;DHT22;9122;48.406;9.984;2022-08-01T15:00:25;28.10;53.90
17994;DHT22;9122;48.406;9.984;2022-08-01T15:03:09;28.10;53.50
17994;DHT22;9122;48.406;9.984;2022-08-01T15:05:54;28.10;54.50
17994;DHT22;9122;48.406;9.984;2022-08-01T15:08:39;28.10;55.10
17994;DHT22;9122;48.406;9.984;2022-08-01T15:11:23;28.10;55.00
17994;DHT22;9122;48.406;9.984;2022-08-01T15:14:08;28.10;54.40
17994;DHT22;9122;48.406;9.984;2022-08-01T15:17:11;28.00;54.10
17994;DHT22;9122;48.406;9.984;2022-08-01T15:20:01;28.00;54.00
17994;DHT22;9122;48.406;9.984;2022-08-01T15:22:46;28.00;53.50
17994;DHT22;9122;48.406;9.984;2022-08-01T15:25:31;28.00;53.40
17994;DHT22;9122;48.406;9.984;2022-08-01T15:28:16;28.00;53.40
17994;DHT22;9122;48.406;9.984;2022-08-01T15:31:00;28.00;53.20
17994;DHT22;9122;48.406;9.984;2022-08-01T15:33:45;28.00;53.40
17994;DHT22;9122;48.406;9.984;2022-08-01T15:36:30;28.00;53.60
17994;DHT22;9122;48.406;9.984;2022-08-01T15:39:14;28.00;53.30
17994;DHT22;9122;48.406;9.984;2022-08-01T15:42:02;28.00;53.00
17994;DHT22;9122;48.406;9.984;2022-08-01T15:44:49;28.00;53.20
17994;DHT22;9122;48.406;9.984;2022-08-01T15:47:33;27.90;53.60
17994;DHT22;9122;48.406;9.984;2022-08-01T15:50:18;27.90;53.70
17994;DHT22;9122;48.406;9.984;2022-08-01T15:53:02;27.90;54.30
17994;DHT22;9122;48.406;9.984;2022-08-01T15:55:47;27.80;55.40
17994;DHT22;9122;48.406;9.984;2022-08-01T15:58:32;27.80;57.00
17994;DHT22;9122;48.406;9.984;2022-08-01T16:01:16;27.70;63.60
17994;DHT22;9122;48.406;9.984;2022-08-01T16:04:01;27.70;66.00
17994;DHT22;9122;48.406;9.984;2022-08-01T16:06:46;27.60;68.00
17994;DHT22;9122;48.406;9.984;2022-08-01T16:09:31;27.50;67.70
17994;DHT22;9122;48.406;9.984;2022-08-01T16:12:15;27.50;67.30
17994;DHT22;9122;48.406;9.984;2022-08-01T16:15:00;27.40;67.90
17994;DHT22;9122;48.406;9.984;2022-08-01T16:17:45;27.30;69.20
17994;DHT22;9122;48.406;9.984;2022-08-01T16:20:29;27.30;70.10
17994;DHT22;9122;48.406;9.984;2022-08-01T16:23:14;27.20;70.70
17994;DHT22;9122;48.406;9.984;2022-08-01T16:25:59;27.20;70.80
17994;DHT22;9122;48.406;9.984;2022-08-01T16:28:43;27.20;70.30
17994;DHT22;9122;48.406;9.984;2022-08-01T16:31:31;27.20;69.00
17994;DHT22;9122;48.406;9.984;2022-08-01T16:34:16;27.10;68.60
17994;DHT22;9122;48.406;9.984;2022-08-01T16:37:01;27.10;68.70
17994;DHT22;9122;48.406;9.984;2022-08-01T16:39:45;27.10;69.10
17994;DHT22;9122;48.406;9.984;2022-08-01T16:42:30;27.10;68.50
17994;DHT22;9122;48.406;9.984;2022-08-01T16:45:15;27.00;68.80
17994;DHT22;9122;48.406;9.984;2022-08-01T16:48:01;27.00;68.30
17994;DHT22;9122;48.406;9.984;2022-08-01T16:50:47;27.00;68.10
17994;DHT22;9122;48.406;9.984;2022-08-01T16:53:35;27.00;68.70
17994;DHT22;9122;48.406;9.984;2022-08-01T16:56:20;27.00;68.60
17994;DHT22;9122;48.406;9.984;2022-08-01T16:59:05;26.90;67.40
17994;DHT22;9122;48.406;9.984;2022-08-01T17:01:50;26.90;66.80
17994;DHT22;9122;48.406;9.984;2022-08-01T17:04:34;26.90;66.70
17994;DHT22;9122;48.406;9.984;2022-08-01T17:07:19;26.90;66.80
17994;DHT22;9122;48.406;9.984;2022-08-01T17:10:05;26.90;66.70
17994;DHT22;9122;48.406;9.984;2022-08-01T17:12:49;26.90;66.10
17994;DHT22;9122;48.406;9.984;2022-08-01T17:15:34;26.90;65.80
17994;DHT22;9122;48.406;9.984;2022-08-01T17:18:19;26.90;65.60
17994;DHT22;9122;48.406;9.984;2022-08-01T17:21:04;26.90;65.30
17994;DHT22;9122;48.406;9.984;2022-08-01T17:23:49;26.80;65.30
17994;DHT22;9122;48.406;9.984;2022-08-01T17:26:34;26.80;65.40
17994;DHT22;9122;48.406;9.984;2022-08-01T17:29:18;26.80;65.70
17994;DHT22;9122;48.406;9.984;2022-08-01T17:32:03;26.80;66.00
17994;DHT22;9122;48.406;9.984;2022-08-01T17:34:47;26.70;65.80
17994;DHT22;9122;48.406;9.984;2022-08-01T17:37:33;26.70;65.00
17994;DHT22;9122;48.406;9.984;2022-08-01T17:40:18;26.70;63.70
17994;DHT22;9122;48.406;9.984;2022-08-01T17:43:02;26.70;63.60
17994;DHT22;9122;48.406;9.984;2022-08-01T17:45:47;26.60;63.20
17994;DHT22;9122;48.406;9.984;2022-08-01T17:48:31;26.60;62.80
17994;DHT22;9122;48.406;9.984;2022-08-01T17:51:16;26.50;62.10
17994;DHT22;9122;48.406;9.984;2022-08-01T17:54:02;26.50;62.20
17994;DHT22;9122;48.406;9.984;2022-08-01T17:56:46;26.40;62.00
17994;DHT22;9122;48.406;9.984;2022-08-01T17:59:31;26.40;62.30
17994;DHT22;9122;48.406;9.984;2022-08-01T18:02:16;26.40;62.40
17994;DHT22;9122;48.406;9.984;2022-08-01T18:05:01;26.30;62.50
17994;DHT22;9122;48.406;9.984;2022-08-01T18:07:47;26.30;62.80
17994;DHT22;9122;48.406;9.984;2022-08-01T18:10:32;26.30;63.20